Time;durP1;ratioP1;P1;durP2;ratioP2;P2;SDS_P1;SDS_P2;PMS_P1;PMS_P2;Temp;Humidity;BMP_temperature;BMP_pressure;BME280_temperature;BME280_humidity;BME280_pressure;Samples;Min_cycle;Max_cycle;Signal;HPM_P1;HPM_P2
2023/01/27 00:00:08;;;;;;;1.42;1.33;;;;;;;0.24;100.00;99974.72;4953937;28;20533;-91
2023/01/27 00:02:39;;;;;;;8.45;4.15;;;;;;;0.17;100.00;99969.94;4953542;28;20410;-93
2023/01/27 00:05:05;;;;;;;1.10;1.10;;;;;;;0.16;100.00;99965.66;5021466;28;20045;-91
2023/01/27 00:07:31;;;;;;;2.80;2.60;;;;;;;0.28;100.00;99979.06;4937203;28;20039;-90
2023/01/27 00:09:57;;;;;;;2.58;2.10;;;;;;;0.17;100.00;99969.94;4953349;28;20084;-92
2023/01/27 00:15:09;;;;;;;1.83;1.73;;;;;;;0.27;100.00;99979.44;4956582;28;20039;-93
2023/01/27 00:17:34;;;;;;;7.97;4.32;;;;;;;0.33;100.00;99981.47;4936962;28;20042;-91
2023/01/27 00:20:00;;;;;;;1.25;1.05;;;;;;;0.37;100.00;99981.50;4949332;28;20491;-92
2023/01/27 00:25:11;;;;;;;3.53;1.17;;;;;;;0.40;100.00;99984.31;4941413;28;20031;-90
2023/01/27 00:27:36;;;;;;;3.55;3.00;;;;;;;0.34;100.00;99976.78;4944126;28;20273;-91
2023/01/27 00:30:04;;;;;;;7.57;3.17;;;;;;;0.31;100.00;99970.13;4960226;28;20117;-93
2023/01/27 00:35:15;;;;;;;0.93;0.93;;;;;;;0.24;100.00;99972.00;4952027;28;20077;-92
2023/01/27 00:37:44;;;;;;;2.40;2.20;;;;;;;0.19;100.00;99975.03;4938675;28;20027;-93
2023/01/27 00:40:11;;;;;;;2.35;2.25;;;;;;;0.14;100.00;99972.63;4943388;28;20031;-91
2023/01/27 00:42:36;;;;;;;2.88;2.70;;;;;;;0.13;100.00;99971.03;4937606;28;20061;-93
2023/01/27 00:47:49;;;;;;;0.70;0.70;;;;;;;0.07;100.00;99967.06;4952475;28;20047;-91
2023/01/27 00:50:15;;;;;;;3.47;2.25;;;;;;;0.13;100.00;99976.50;4956212;28;20038;-92
2023/01/27 00:52:41;;;;;;;1.98;1.73;;;;;;;0.20;100.00;99987.53;4941333;28;20117;-93
2023/01/27 00:55:09;;;;;;;2.85;2.65;;;;;;;0.17;100.00;99989.03;4941186;28;20027;-92
2023/01/27 00:57:35;;;;;;;2.83;2.63;;;;;;;0.18;100.00;99976.19;4929201;28;20050;-91
2023/01/27 01:00:02;;;;;;;7.38;3.90;;;;;;;0.08;100.00;99969.44;4950875;28;20039;-93
2023/01/27 01:02:29;;;;;;;2.20;1.60;;;;;;;-0.14;100.00;99946.53;4938517;28;20072;-92
2023/01/27 01:04:54;;;;;;;1.00;0.88;;;;;;;0.08;100.00;99974.91;4957159;28;20113;-92
2023/01/27 01:07:20;;;;;;;13.45;1.42;;;;;;;0.03;100.00;99977.13;4942017;28;20068;-93
2023/01/27 01:09:46;;;;;;;1.90;1.80;;;;;;;0.00;100.00;99970.50;4979221;28;20071;-93
2023/01/27 01:12:11;;;;;;;5.30;4.10;;;;;;;-0.11;100.00;99967.59;4941547;28;20026;-92
2023/01/27 01:14:37;;;;;;;2.35;2.25;;;;;;;-0.02;100.00;99970.06;4936763;28;20039;-93
2023/01/27 01:17:02;;;;;;;4.88;2.97;;;;;;;-0.12;100.00;99957.84;4947404;28;20401;-91
2023/01/27 01:19:29;;;;;;;3.83;2.75;;;;;;;-0.07;100.00;99967.63;4937564;28;20125;-92
2023/01/27 01:21:55;;;;;;;2.17;2.08;;;;;;;-0.09;100.00;99970.75;4937377;28;20113;-92
2023/01/27 01:24:21;;;;;;;1.40;1.35;;;;;;;-0.05;100.00;99959.91;4934814;28;20500;-94
2023/01/27 01:26:46;;;;;;;7.32;3.40;;;;;;;-0.17;100.00;99951.94;4932304;29;20163;-91
2023/01/27 01:29:12;;;;;;;3.10;2.80;;;;;;;-0.12;100.00;99952.38;4920325;28;20037;-91
2023/01/27 01:31:38;;;;;;;2.95;2.70;;;;;;;-0.08;100.00;99958.66;4934429;28;20023;-92
2023/01/27 01:34:03;;;;;;;5.28;4.78;;;;;;;-0.10;100.00;99952.81;4941463;28;20042;-91
2023/01/27 01:36:29;;;;;;;2.67;2.13;;;;;;;-0.14;100.00;99954.69;4951382;28;20027;-92
2023/01/27 01:38:55;;;;;;;4.00;3.78;;;;;;;-0.14;100.00;99951.97;4923242;28;20030;-92
2023/01/27 01:41:23;;;;;;;2.08;1.77;;;;;;;-0.34;100.00;99920.53;4999684;28;20076;-91
2023/01/27 01:43:49;;;;;;;5.35;3.00;;;;;;;-0.29;100.00;99933.84;4936425;28;20454;-91
2023/01/27 01:46:16;;;;;;;3.08;2.90;;;;;;;-0.17;100.00;99960.91;4954947;28;20042;-92
2023/01/27 01:48:45;;;;;;;6.57;4.30;;;;;;;-0.25;100.00;99937.41;4953849;28;20073;-91
2023/01/27 01:51:15;;;;;;;3.67;2.42;;;;;;;-0.09;100.00;99959.06;4961553;28;20402;-91
2023/01/27 01:54:09;;;;;;;3.95;3.25;;;;;;;-0.18;100.00;99948.41;4941813;28;20088;-90
2023/01/27 01:56:42;;;;;;;1.58;1.48;;;;;;;-0.19;100.00;99944.09;4951042;28;20035;-92
2023/01/27 01:59:15;;;;;;;2.45;2.25;;;;;;;-0.15;100.00;99938.69;4951657;28;20117;-93
2023/01/27 02:01:40;;;;;;;3.85;3.53;;;;;;;-0.14;100.00;99945.72;4951101;28;20034;-93
2023/01/27 02:04:12;;;;;;;2.42;2.30;;;;;;;-0.09;100.00;99942.69;4936159;28;20058;-93
2023/01/27 02:07:06;;;;;;;4.18;2.75;;;;;;;-0.35;100.00;99902.59;4930478;28;20031;-92
2023/01/27 02:09:32;;;;;;;3.63;3.05;;;;;;;-0.27;100.00;99909.72;4951839;28;20165;-93
2023/01/27 02:11:59;;;;;;;2.28;2.17;;;;;;;-0.22;100.00;99922.25;4935423;28;20027;-92
2023/01/27 02:14:25;;;;;;;4.55;3.60;;;;;;;-0.29;100.00;99905.78;4936136;28;20041;-92
2023/01/27 02:16:52;;;;;;;2.72;2.47;;;;;;;-0.23;100.00;99916.00;4939712;28;20074;-93
2023/01/27 02:19:24;;;;;;;2.65;2.47;;;;;;;-0.21;100.00;99915.66;4955546;28;20050;-93
2023/01/27 02:21:52;;;;;;;4.68;2.60;;;;;;;-0.15;100.00;99934.03;4951387;28;20043;-91
2023/01/27 02:24:18;;;;;;;3.80;3.50;;;;;;;-0.15;100.00;99923.13;5027203;28;20046;-91
2023/01/27 02:26:44;;;;;;;1.83;1.73;;;;;;;-0.12;100.00;99924.34;4935629;28;20039;-91
2023/01/27 02:29:14;;;;;;;4.78;3.88;;;;;;;-0.16;100.00;99935.19;4949671;28;20026;-91
2023/01/27 02:31:40;;;;;;;2.60;2.50;;;;;;;-0.16;100.00;99932.47;4957228;28;20031;-92
2023/01/27 02:34:12;;;;;;;3.05;2.80;;;;;;;-0.24;100.00;99922.59;4946090;28;20042;-94
2023/01/27 02:36:42;;;;;;;5.63;4.13;;;;;;;-0.16;100.00;99926.25;4915438;28;20043;-92
2023/01/27 02:39:09;;;;;;;2.30;2.17;;;;;;;-0.20;100.00;99928.13;4965785;28;20031;-92
2023/01/27 02:41:48;;;;;;;0.30;0.30;;;;;;;-0.22;100.00;99928.50;4937573;28;20038;-93
2023/01/27 02:44:14;;;;;;;0.57;0.55;;;;;;;-0.22;100.00;99928.50;4935300;28;20038;-92
2023/01/27 02:46:40;;;;;;;3.20;2.90;;;;;;;-0.37;100.00;99907.63;4940328;28;20113;-93
2023/01/27 02:49:06;;;;;;;1.90;1.73;;;;;;;-0.22;100.00;99925.75;4937810;28;20375;-92
2023/01/27 02:51:32;;;;;;;8.77;3.10;;;;;;;-0.15;100.00;99934.03;4945053;28;20034;-93
2023/01/27 02:53:58;;;;;;;2.10;1.73;;;;;;;-0.12;100.00;99940.72;4943760;28;20035;-92
2023/01/27 02:56:24;;;;;;;2.72;2.53;;;;;;;-0.19;100.00;99927.75;4957811;28;20496;-93
2023/01/27 02:58:51;;;;;;;1.23;1.23;;;;;;;-0.06;100.00;99941.94;4940000;28;20586;-93
2023/01/27 03:01:24;;;;;;;4.20;3.17;;;;;;;-0.08;100.00;99936.84;4937756;28;20448;-93
2023/01/27 03:03:51;;;;;;;3.75;2.05;;;;;;;-0.01;100.00;99945.16;4934748;28;20044;-94
2023/01/27 03:06:18;;;;;;;0.60;0.60;;;;;;;0.02;100.00;99948.28;4933998;28;20138;-92
2023/01/27 03:08:44;;;;;;;3.17;2.80;;;;;;;0.05;100.00;99947.53;4937447;28;20102;-92
2023/01/27 03:11:12;;;;;;;2.75;1.13;;;;;;;0.04;100.00;99937.81;4935732;28;20031;-93
2023/01/27 03:13:38;;;;;;;3.50;3.17;;;;;;;0.00;100.00;99946.72;4958362;28;20034;-92
2023/01/27 03:18:49;;;;;;;6.05;3.65;;;;;;;-0.19;100.00;99924.22;4957347;28;20079;-92
2023/01/27 03:21:17;;;;;;;2.53;2.33;;;;;;;-0.09;100.00;99935.31;4939821;28;20085;-91
2023/01/27 03:23:44;;;;;;;1.48;1.38;;;;;;;-0.12;100.00;99930.56;4934551;28;20478;-92
2023/01/27 03:26:11;;;;;;;0.50;0.50;;;;;;;-0.10;100.00;99928.28;4939921;28;20035;-92
2023/01/27 03:28:40;;;;;;;5.18;3.30;;;;;;;-0.05;100.00;99932.63;4937709;28;20023;-92
2023/01/27 03:31:18;;;;;;;3.95;3.17;;;;;;;-0.03;100.00;99931.09;5001568;28;20563;-93
2023/01/27 03:33:51;;;;;;;2.60;2.25;;;;;;;-0.05;100.00;99927.97;4944747;28;20046;-93
2023/01/27 03:47:43;;;;;;;3.45;3.22;;;;;;;0.03;100.00;99930.78;4979187;28;20050;-93
2023/01/27 03:50:18;;;;;;;6.50;3.25;;;;;;;0.02;100.00;99918.28;4954801;28;20038;-93
2023/01/27 03:53:01;;;;;;;4.60;3.78;;;;;;;0.04;100.00;99929.63;4933910;28;20039;-92
2023/01/27 03:55:28;;;;;;;;;;;;;;;0.06;100.00;99927.31;4973970;28;20050;-92
2023/01/27 03:57:55;;;;;;;1.17;1.13;;;;;;;0.07;100.00;99926.16;4951645;28;19933;-93
2023/01/27 04:00:21;;;;;;;7.97;3.35;;;;;;;-0.01;100.00;99906.97;4959481;28;20031;-92
2023/01/27 04:08:15;;;;;;;3.67;3.38;;;;;;;-0.04;100.00;99898.75;4963649;28;20035;-93
2023/01/27 04:11:53;;;;;;;3.65;3.35;;;;;;;0.07;100.00;99918.78;4937394;28;20027;-90
2023/01/27 04:13:26;;;;;;;1.08;0.93;;;;;;;0.04;100.00;99907.81;4948872;28;20039;-92
2023/01/27 04:15:53;;;;;;;2.17;1.98;;;;;;;-0.06;100.00;99896.38;4947473;28;20043;-95
2023/01/27 04:18:19;;;;;;;3.92;2.40;;;;;;;0.04;100.00;99902.38;4926379;28;20397;-93
2023/01/27 04:20:44;;;;;;;0.57;0.55;;;;;;;0.05;100.00;99893.00;4935890;28;20041;-93
2023/01/27 04:23:10;;;;;;;2.60;2.40;;;;;;;-0.05;100.00;99884.34;4935427;28;20126;-93
2023/01/27 04:25:35;;;;;;;2.95;2.75;;;;;;;0.01;100.00;99906.59;4940566;28;20031;-92
2023/01/27 04:28:02;;;;;;;16.65;4.07;;;;;;;-0.03;100.00;99905.75;4945356;28;20023;-93
2023/01/27 04:30:28;;;;;;;2.30;2.20;;;;;;;-0.17;100.00;99898.19;4958343;28;20099;-92
2023/01/27 04:32:53;;;;;;;4.07;3.80;;;;;;;-0.20;100.00;99898.16;4940997;28;20019;-92
2023/01/27 04:35:19;;;;;;;3.25;2.70;;;;;;;-0.13;100.00;99904.47;4935954;28;20031;-92
2023/01/27 04:37:44;;;;;;;4.47;4.07;;;;;;;-0.17;100.00;99875.59;4955668;28;20038;-94
2023/01/27 04:40:11;;;;;;;2.13;1.33;;;;;;;-0.06;100.00;99901.06;4912857;28;20130;-94
2023/01/27 04:42:36;;;;;;;1.08;1.02;;;;;;;-0.07;100.00;99903.00;4948083;28;20038;-94
2023/01/27 04:45:02;;;;;;;2.05;1.73;;;;;;;-0.14;100.00;99893.94;4943444;28;20083;-93
2023/01/27 04:47:27;;;;;;;2.30;2.10;;;;;;;0.02;100.00;99910.13;4940747;28;20047;-90
2023/01/27 04:49:53;;;;;;;9.00;4.53;;;;;;;0.02;100.00;99902.72;5020693;28;20087;-94
2023/01/27 04:52:18;;;;;;;1.98;1.48;;;;;;;0.00;100.00;99900.34;4958812;28;20493;-92
2023/01/27 04:54:44;;;;;;;3.10;2.90;;;;;;;-0.03;100.00;99901.09;4957153;28;20050;-93
2023/01/27 04:57:09;;;;;;;2.30;2.10;;;;;;;-0.01;100.00;99895.28;4920597;28;20126;-93
2023/01/27 04:59:35;;;;;;;2.70;2.53;;;;;;;0.03;100.00;99892.59;4960431;28;20034;-93
2023/01/27 05:02:03;;;;;;;3.13;2.53;;;;;;;-0.02;100.00;99889.03;4957898;28;20034;-93
2023/01/27 05:04:28;;;;;;;2.67;2.13;;;;;;;0.03;100.00;99896.13;4920498;28;20081;-93
2023/01/27 05:06:54;;;;;;;1.30;1.25;;;;;;;-0.01;100.00;99904.25;4937081;28;20118;-93
2023/01/27 05:09:19;;;;;;;3.15;2.50;;;;;;;-0.04;100.00;99902.25;4962166;28;20550;-93
2023/01/27 05:11:45;;;;;;;5.93;2.08;;;;;;;-0.16;100.00;99886.13;4935906;28;20043;-93
2023/01/27 05:14:12;;;;;;;3.33;3.13;;;;;;;-0.07;100.00;99903.00;4936693;28;20035;-92
2023/01/27 05:16:38;;;;;;;2.55;2.40;;;;;;;-0.17;100.00;99887.28;4924768;28;20045;-92
2023/01/27 05:19:04;;;;;;;5.90;2.80;;;;;;;-0.06;100.00;99907.28;4923633;28;20027;-93
2023/01/27 05:21:29;;;;;;;13.07;5.45;;;;;;;-0.05;100.00;99911.59;4920528;28;20678;-93
2023/01/27 05:23:55;;;;;;;4.85;4.47;;;;;;;-0.07;100.00;99908.44;4938293;28;20019;-94
2023/01/27 05:26:23;;;;;;;2.10;1.98;;;;;;;-0.04;100.00;99901.50;4934158;28;20422;-93
2023/01/27 05:28:49;;;;;;;4.18;3.78;;;;;;;-0.08;100.00;99909.59;4934569;28;20447;-94
2023/01/27 05:31:23;;;;;;;2.67;1.45;;;;;;;-0.03;100.00;99906.56;4929359;28;20027;-92
2023/01/27 05:33:52;;;;;;;1.50;1.42;;;;;;;-0.10;100.00;99914.66;4943032;28;20038;-92
2023/01/27 05:36:19;;;;;;;1.90;0.80;;;;;;;-0.17;100.00;99902.84;4928145;28;20031;-93
2023/01/27 05:38:44;;;;;;;1.58;1.48;;;;;;;-0.26;100.00;99894.16;4950986;28;20406;-92
2023/01/27 05:41:11;;;;;;;3.55;2.95;;;;;;;-0.19;100.00;99911.38;4950118;28;20034;-92
2023/01/27 05:43:40;;;;;;;4.38;3.83;;;;;;;-0.18;100.00;99918.41;4934577;28;20023;-93
2023/01/27 05:46:05;;;;;;;2.97;2.55;;;;;;;-0.17;100.00;99917.28;4940503;28;20035;-93
2023/01/27 05:48:32;;;;;;;3.38;1.92;;;;;;;-0.20;100.00;99914.50;4965787;28;20108;-92
2023/01/27 05:50:58;;;;;;;1.67;1.58;;;;;;;-0.18;100.00;99912.19;4971490;28;20062;-95
2023/01/27 05:53:24;;;;;;;1.13;1.13;;;;;;;-0.26;100.00;99911.28;4949645;28;20070;-93
2023/01/27 05:55:50;;;;;;;4.50;2.55;;;;;;;-0.26;100.00;99905.84;4962489;28;20050;-93
2023/01/27 05:58:16;;;;;;;2.25;2.15;;;;;;;-0.48;100.00;99882.94;4951465;28;20045;-94
2023/01/27 06:00:42;;;;;;;2.83;2.58;;;;;;;-0.51;100.00;99882.88;5043873;28;20117;-93
2023/01/27 06:03:08;;;;;;;5.22;4.38;;;;;;;-0.26;100.00;99921.41;4932452;29;20058;-93
2023/01/27 06:05:33;;;;;;;3.00;1.83;;;;;;;-0.33;100.00;99919.38;4933455;28;20059;-93
2023/01/27 06:07:59;;;;;;;2.88;2.63;;;;;;;-0.34;100.00;99923.25;4968502;28;20332;-94
2023/01/27 06:10:25;;;;;;;0.65;0.65;;;;;;;-0.59;100.00;99886.66;4964156;28;20039;-93
2023/01/27 06:12:50;;;;;;;5.78;0.95;;;;;;;-0.62;100.00;99887.38;4946885;28;20038;-93
2023/01/27 06:15:16;;;;;;;3.47;3.28;;;;;;;-0.37;100.00;99934.09;4918285;28;20519;-91
2023/01/27 06:17:41;;;;;;;1.95;1.85;;;;;;;-0.44;100.00;99917.66;4952224;28;20513;-92
2023/01/27 06:20:08;;;;;;;1.58;1.48;;;;;;;-0.49;100.00;99914.06;4947479;28;20497;-93
2023/01/27 06:22:33;;;;;;;3.25;2.92;;;;;;;-0.45;100.00;99919.56;4962349;28;20139;-94
2023/01/27 06:24:59;;;;;;;1.30;1.05;;;;;;;-0.48;100.00;99910.19;4972937;28;20504;-93
2023/01/27 06:27:24;;;;;;;3.80;0.93;;;;;;;-0.62;100.00;99898.28;4939413;28;20023;-94
2023/01/27 06:29:50;;;;;;;2.17;2.08;;;;;;;-0.69;100.00;99895.47;4962423;28;20509;-93
2023/01/27 06:32:15;;;;;;;1.15;1.10;;;;;;;-0.48;100.00;99931.19;4916324;28;20069;-94
2023/01/27 06:34:41;;;;;;;0.40;0.40;;;;;;;-0.48;100.00;99936.63;4935094;28;20126;-94
2023/01/27 06:37:06;;;;;;;1.88;1.77;;;;;;;-0.78;100.00;99889.47;4945063;28;20549;-93
2023/01/27 06:39:32;;;;;;;0.77;0.77;;;;;;;-0.79;100.00;99894.13;4958778;28;20163;-93
2023/01/27 06:41:57;;;;;;;3.35;2.78;;;;;;;-0.60;100.00;99928.66;4940007;28;20047;-93
2023/01/27 06:44:23;;;;;;;0.90;0.90;;;;;;;-0.84;100.00;99897.13;4987760;28;20031;-93
2023/01/27 06:46:48;;;;;;;1.40;1.30;;;;;;;-0.74;100.00;99904.72;4928445;28;20034;-93
2023/01/27 06:49:14;;;;;;;2.80;1.48;;;;;;;-0.54;100.00;99944.34;4939433;28;20494;-92
2023/01/27 06:51:40;;;;;;;2.90;2.70;;;;;;;-0.57;100.00;99931.47;4940663;28;20607;-96
2023/01/27 06:54:05;;;;;;;3.15;2.90;;;;;;;-0.51;100.00;99940.88;4922857;28;20031;-95
2023/01/27 06:56:31;;;;;;;0.68;0.68;;;;;;;-0.55;100.00;99936.53;4932853;28;20114;-94
2023/01/27 06:58:57;;;;;;;2.42;2.25;;;;;;;-0.50;100.00;99936.22;4924169;28;20478;-95
2023/01/27 07:01:22;;;;;;;2.17;1.67;;;;;;;-0.55;100.00;99939.25;4940643;28;20174;-95
2023/01/27 07:03:48;;;;;;;0.28;0.28;;;;;;;-0.66;100.00;99920.03;4940804;28;20444;-94
2023/01/27 07:06:15;;;;;;;0.40;0.40;;;;;;;-0.77;100.00;99907.38;4937547;28;20507;-95
2023/01/27 07:08:41;;;;;;;1.02;1.02;;;;;;;-0.84;100.00;99909.97;4917710;28;20023;-95
2023/01/27 07:11:07;;;;;;;0.32;0.32;;;;;;;-0.87;100.00;99891.63;4935397;28;20035;-95
2023/01/27 07:13:34;;;;;;;0.98;0.95;;;;;;;-0.86;100.00;99901.38;4924442;28;20031;-94
2023/01/27 07:16:00;;;;;;;4.00;3.58;;;;;;;-0.89;100.00;99888.50;5006931;28;20038;-91
2023/01/27 07:18:34;;;;;;;3.13;1.88;;;;;;;-0.94;100.00;99886.88;4929084;28;20039;-95
2023/01/27 07:21:04;;;;;;;0.75;0.75;;;;;;;-0.56;100.00;99940.41;4928444;29;20061;-93
2023/01/27 07:23:30;;;;;;;1.25;1.17;;;;;;;-0.72;100.00;99920.69;4907229;29;20271;-95
2023/01/27 07:25:56;;;;;;;1.13;1.10;;;;;;;-0.78;100.00;99903.09;4912140;28;20579;-93
2023/01/27 07:28:21;;;;;;;2.83;1.35;;;;;;;-0.77;100.00;99907.38;4922841;29;20473;-95
2023/01/27 07:30:47;;;;;;;0.57;0.57;;;;;;;-0.82;100.00;99902.25;4928033;28;20043;-95
2023/01/27 07:33:15;;;;;;;0.98;0.95;;;;;;;-0.79;100.00;99904.22;4968337;28;20364;-94
2023/01/27 07:35:41;;;;;;;1.85;1.75;;;;;;;-0.80;100.00;99902.66;5048887;28;20480;-95
2023/01/27 07:38:10;;;;;;;2.35;1.20;;;;;;;-1.00;100.00;99883.66;5042673;28;20040;-95
2023/01/27 07:40:35;;;;;;;2.00;1.83;;;;;;;-0.81;100.00;99909.25;5027100;28;20063;-93
2023/01/27 07:43:01;;;;;;;2.97;1.65;;;;;;;-0.99;100.00;99879.00;5008031;28;20063;-95
2023/01/27 07:45:27;;;;;;;4.07;2.90;;;;;;;-1.03;100.00;99878.94;5008952;28;20099;-95
2023/01/27 07:47:59;;;;;;;0.82;0.82;;;;;;;-0.68;100.00;99927.75;4941152;28;20562;-95
2023/01/27 07:50:24;;;;;;;0.20;0.20;;;;;;;-0.77;100.00;99904.66;4958321;28;20495;-95
2023/01/27 07:52:50;;;;;;;1.80;1.70;;;;;;;-0.96;100.00;99873.63;4942153;28;20030;-95
2023/01/27 07:55:16;;;;;;;1.17;1.08;;;;;;;-0.96;100.00;99879.06;4944395;28;20049;-95
2023/01/27 07:57:42;;;;;;;1.27;1.17;;;;;;;-0.68;100.00;99926.97;4928891;28;20038;-95
2023/01/27 08:00:08;;;;;;;1.48;1.40;;;;;;;-0.97;100.00;99882.91;4912338;29;20057;-95
2023/01/27 08:02:40;;;;;;;1.73;1.63;;;;;;;-0.62;100.00;99930.97;4941133;29;20042;-94
2023/01/27 08:05:06;;;;;;;1.08;0.98;;;;;;;-0.87;100.00;99886.19;4938618;28;20043;-95
2023/01/27 08:07:32;;;;;;;1.23;1.20;;;;;;;-0.87;100.00;99875.31;4942900;28;20421;-95
2023/01/27 08:09:58;;;;;;;3.33;1.85;;;;;;;-0.61;100.00;99919.72;4988053;28;20035;-94
2023/01/27 08:12:26;;;;;;;6.85;2.33;;;;;;;-0.80;100.00;99898.00;5017167;28;20499;-94
2023/01/27 08:14:52;;;;;;;2.22;1.52;;;;;;;-0.81;100.00;99895.66;5044664;28;20055;-95
2023/01/27 08:17:22;;;;;;;1.85;1.75;;;;;;;-0.82;100.00;99883.97;5043550;28;20491;-94
2023/01/27 08:19:50;;;;;;;0.85;0.85;;;;;;;-0.81;100.00;99895.66;4999089;28;20479;-95
2023/01/27 08:22:20;;;;;;;1.63;1.45;;;;;;;-0.95;100.00;99883.38;4925154;29;20420;-95
2023/01/27 08:24:46;;;;;;;1.48;1.38;;;;;;;-0.61;100.00;99932.56;4923542;29;20204;-95
2023/01/27 08:27:12;;;;;;;1.27;0.90;;;;;;;-0.82;100.00;99891.34;4958013;28;20041;-95
2023/01/27 08:29:37;;;;;;;1.75;1.25;;;;;;;-0.85;100.00;99883.91;5041344;28;20036;-95
2023/01/27 08:32:04;;;;;;;2.33;1.90;;;;;;;-0.55;100.00;99925.63;5024513;28;20278;-95
2023/01/27 08:34:29;;;;;;;1.33;1.25;;;;;;;-0.76;100.00;99892.59;5018038;28;20134;-95
2023/01/27 08:36:55;;;;;;;2.55;1.17;;;;;;;-0.57;100.00;99925.22;4941334;28;20498;-94
2023/01/27 08:39:21;;;;;;;1.75;1.65;;;;;;;-0.72;100.00;99890.72;4950351;28;20060;-96
2023/01/27 08:41:46;;;;;;;0.68;0.68;;;;;;;-0.76;100.00;99881.69;5041026;28;20037;-94
2023/01/27 08:44:12;;;;;;;0.28;0.28;;;;;;;-0.68;100.00;99891.56;5022908;28;20067;-95
2023/01/27 08:46:38;;;;;;;0.40;0.40;;;;;;;-0.55;100.00;99915.53;5024604;28;20035;-94
2023/01/27 08:49:04;;;;;;;2.28;1.90;;;;;;;-0.73;100.00;99886.44;5040435;28;20036;-94
2023/01/27 08:51:30;;;;;;;2.65;0.90;;;;;;;-0.59;100.00;99905.72;5041275;28;20028;-94
2023/01/27 08:53:55;;;;;;;3.40;2.05;;;;;;;-0.69;100.00;99882.63;5040628;28;20123;-95
2023/01/27 08:56:22;;;;;;;0.98;0.98;;;;;;;-0.68;100.00;99877.94;5040454;28;20047;-94
2023/01/27 08:58:47;;;;;;;1.13;1.08;;;;;;;-0.56;100.00;99896.81;5022149;28;20029;-96
2023/01/27 09:01:14;;;;;;;0.10;0.10;;;;;;;-0.64;100.00;99874.13;4967613;28;20065;-94
2023/01/27 09:03:40;;;;;;;1.73;1.63;;;;;;;-0.32;100.00;99923.66;4967394;28;20164;-93
2023/01/27 09:06:08;;;;;;;1.15;1.15;;;;;;;-0.31;100.00;99936.13;5055449;28;20245;-95
2023/01/27 09:08:34;;;;;;;1.67;1.58;;;;;;;-0.24;100.00;99924.56;5038644;28;20040;-95
2023/01/27 09:11:07;;;;;;;0.68;0.68;;;;;;;-0.25;100.00;99926.50;5038523;28;20036;-94
2023/01/27 09:13:32;;;;;;;0.47;0.47;;;;;;;-0.19;100.00;99933.19;5037769;28;20122;-94
2023/01/27 09:15:59;;;;;;;4.55;3.10;;;;;;;-0.01;100.00;99952.56;5035962;28;20480;-93
2023/01/27 09:18:25;;;;;;;4.32;1.52;;;;;;;-0.22;100.00;99923.03;4947538;28;20482;-92
2023/01/27 09:20:51;;;;;;;0.57;0.57;;;;;;;-0.12;100.00;99932.53;5029845;28;20039;-92
2023/01/27 09:23:17;;;;;;;1.52;0.93;;;;;;;-0.03;100.00;99922.91;4985537;28;20097;-95
2023/01/27 09:25:42;;;;;;;0.30;0.30;;;;;;;-0.08;100.00;99925.19;4918135;29;20023;-92
2023/01/27 09:28:15;;;;;;;3.30;3.00;;;;;;;-0.03;100.00;99936.53;4917665;29;20506;-92
2023/01/27 09:30:43;;;;;;;1.55;1.45;;;;;;;0.05;100.00;99937.44;4924956;28;20054;-92
2023/01/27 09:33:09;;;;;;;2.15;1.08;;;;;;;0.16;100.00;99948.50;4987213;28;20478;-93
2023/01/27 09:35:58;;;;;;;1.65;1.55;;;;;;;0.21;100.00;99956.34;4918505;28;20035;-92
2023/01/27 09:38:25;;;;;;;1.20;1.20;;;;;;;0.37;100.00;99976.03;4918144;29;20047;-93
2023/01/27 09:41:10;;;;;;;0.30;0.30;;;;;;;0.46;100.00;99991.00;4902712;29;20039;-92
2023/01/27 09:44:02;;;;;;;0.77;0.77;;;;;;;0.55;100.00;99982.53;4933235;29;20053;-92
2023/01/27 09:46:33;;;;;;;1.58;1.48;;;;;;;0.58;100.00;99976.31;4920298;29;20058;-92
2023/01/27 09:49:24;;;;;;;0.88;0.88;;;;;;;0.59;100.00;99975.16;4930181;28;20045;-92
2023/01/27 09:52:25;;;;;;;3.33;1.30;;;;;;;0.49;100.00;99964.91;4933410;29;20135;-92
2023/01/27 09:55:23;;;;;;;2.53;2.17;;;;;;;0.63;100.00;99978.72;4932261;29;20096;-93
2023/01/27 09:58:21;;;;;;;0.63;0.45;;;;;;;0.65;100.00;99976.41;4915595;29;20066;-92
2023/01/27 10:00:59;;;;;;;1.05;1.05;;;;;;;0.75;100.00;99981.22;4900660;28;20074;-92
2023/01/27 10:03:28;;;;;;;0.73;0.73;;;;;;;0.76;100.00;99988.25;4949347;29;20043;-93
2023/01/27 10:06:08;;;;;;;1.13;1.13;;;;;;;0.74;100.00;99984.31;4916287;28;20031;-92
2023/01/27 10:08:49;;;;;;;2.33;2.05;;;;;;;0.71;100.00;99963.22;4917012;29;20043;-91
2023/01/27 10:11:27;;;;;;;0.93;0.90;;;;;;;0.65;100.00;99970.19;4918919;29;20035;-93
2023/01/27 10:13:56;;;;;;;0.20;0.20;;;;;;;0.73;100.00;99978.06;4936199;29;20039;-94
2023/01/27 10:16:41;;;;;;;0.30;0.30;;;;;;;0.78;100.00;99974.22;4936113;29;20549;-92
2023/01/27 10:19:25;;;;;;;0.75;0.75;;;;;;;0.84;100.00;99976.25;5020393;28;20050;-92
2023/01/27 10:22:38;;;;;;;2.00;1.85;;;;;;;0.75;100.00;99969.50;4936235;28;20062;-93
2023/01/27 10:25:31;;;;;;;2.03;1.90;;;;;;;0.80;100.00;99969.97;4960447;28;20043;-91
2023/01/27 10:27:58;;;;;;;0.65;0.65;;;;;;;0.77;100.00;99978.13;4921276;29;20583;-94
2023/01/27 10:30:32;;;;;;;0.93;0.93;;;;;;;0.42;100.00;99918.44;4922419;28;20497;-94
2023/01/27 10:33:17;;;;;;;1.60;1.50;;;;;;;0.65;100.00;99973.66;4940275;28;20062;-94
2023/01/27 10:35:46;;;;;;;1.20;1.10;;;;;;;0.69;100.00;99971.00;4940488;28;20043;-92
2023/01/27 10:38:29;;;;;;;0.55;0.55;;;;;;;0.70;100.00;99973.34;4939814;28;20454;-94
2023/01/27 10:41:17;;;;;;;0.87;0.87;;;;;;;0.63;100.00;99967.81;4940007;28;20103;-94
2023/01/27 10:43:58;;;;;;;1.85;1.45;;;;;;;0.67;100.00;99956.94;4939804;28;20301;-93
2023/01/27 10:46:42;;;;;;;1.58;1.48;;;;;;;0.73;100.00;99978.06;4972473;28;20102;-93
2023/01/27 10:49:23;;;;;;;0.65;0.65;;;;;;;0.74;100.00;99968.72;4972138;28;20058;-93
2023/01/27 10:51:56;;;;;;;2.30;2.10;;;;;;;0.70;100.00;99956.19;4971984;28;20046;-91
2023/01/27 10:54:28;;;;;;;0.93;0.90;;;;;;;0.74;100.00;99965.97;4972680;28;20126;-94
2023/01/27 10:56:58;;;;;;;2.00;1.70;;;;;;;0.82;100.00;99964.91;4940395;28;20034;-94
2023/01/27 10:59:44;;;;;;;1.88;1.77;;;;;;;0.65;100.00;99960.03;4960116;28;20042;-94
2023/01/27 11:02:27;;;;;;;4.20;1.60;;;;;;;0.53;100.00;99946.63;4962080;28;20054;-92
2023/01/27 11:04:57;;;;;;;1.63;1.52;;;;;;;0.53;100.00;99949.34;4989052;28;20083;-93
2023/01/27 11:07:23;;;;;;;0.70;0.70;;;;;;;0.37;100.00;99943.31;5056682;28;20028;-93
2023/01/27 11:09:58;;;;;;;2.92;2.72;;;;;;;0.45;100.00;99950.41;5060637;28;20115;-95
2023/01/27 11:12:29;;;;;;;0.50;0.50;;;;;;;0.42;100.00;99951.97;4949838;28;20031;-94
2023/01/27 11:14:55;;;;;;;1.23;1.13;;;;;;;0.36;100.00;99925.38;4921105;29;20509;-95
2023/01/27 11:17:40;;;;;;;1.55;1.45;;;;;;;0.38;100.00;99951.13;4946639;28;20023;-95
2023/01/27 11:20:16;;;;;;;0.32;0.32;;;;;;;0.29;100.00;99952.56;5039424;28;20033;-93
2023/01/27 11:22:59;;;;;;;3.75;1.00;;;;;;;0.07;100.00;99923.44;4934734;29;20042;-93
2023/01/27 11:25:43;;;;;;;4.45;1.25;;;;;;;0.16;100.00;99934.88;4919972;29;20034;-92
2023/01/27 11:28:24;;;;;;;0.63;0.63;;;;;;;0.00;100.00;99922.16;4919372;29;20054;-94
2023/01/27 11:31:00;;;;;;;1.60;1.48;;;;;;;-0.01;100.00;99923.34;4936973;29;20043;-93
2023/01/27 11:33:33;;;;;;;0.70;0.70;;;;;;;0.03;100.00;99928.06;4906087;29;20031;-92
2023/01/27 11:35:58;;;;;;;1.58;1.48;;;;;;;0.02;100.00;99905.44;4935624;29;20402;-91
2023/01/27 11:38:24;;;;;;;1.13;1.13;;;;;;;0.13;100.00;99916.50;4928053;28;20035;-90
2023/01/27 11:40:51;;;;;;;0.68;0.68;;;;;;;0.26;100.00;99920.56;4954002;28;20039;-91
2023/01/27 11:43:23;;;;;;;0.90;0.90;;;;;;;0.22;100.00;99908.81;4937592;28;20054;-92
2023/01/27 11:45:51;;;;;;;0.50;0.50;;;;;;;0.36;100.00;99919.94;4922279;28;20034;-91
2023/01/27 11:48:18;;;;;;;2.13;1.65;;;;;;;0.33;100.00;99915.19;5029135;28;20424;-93
2023/01/27 11:50:45;;;;;;;0.55;0.55;;;;;;;0.30;100.00;99894.91;4922879;28;20035;-91
2023/01/27 11:53:25;;;;;;;0.85;0.85;;;;;;;0.44;100.00;99916.13;4935235;28;20462;-91
2023/01/27 11:55:56;;;;;;;2.33;1.38;;;;;;;0.09;100.00;99866.56;4920827;28;20077;-93
2023/01/27 11:58:30;;;;;;;1.27;1.27;;;;;;;0.45;100.00;99910.28;4941966;28;20027;-91
2023/01/27 12:00:59;;;;;;;4.47;1.80;;;;;;;0.50;100.00;99909.16;4943477;28;20031;-92
2023/01/27 12:03:40;;;;;;;2.00;1.75;;;;;;;0.52;100.00;99904.13;4920635;29;20402;-92
2023/01/27 12:06:12;;;;;;;0.73;0.73;;;;;;;0.38;100.00;99887.59;4951500;28;20108;-92
2023/01/27 12:08:46;;;;;;;0.65;0.65;;;;;;;0.55;100.00;99906.09;4948328;28;20190;-92